createdAt,value
2023-03-13T00:00:58.285Z,3.41
2023-03-13T00:03:26.451Z,3.41
2023-03-13T00:05:58.340Z,3.39
2023-03-13T00:08:28.860Z,3.35
2023-03-13T00:10:56.830Z,3.35
2023-03-13T00:13:24.900Z,3.37
2023-03-13T00:15:59.620Z,3.39
2023-03-13T00:18:27.620Z,3.41
2023-03-13T00:21:02.443Z,3.43
2023-03-13T00:23:30.834Z,3.41
2023-03-13T00:25:59.808Z,3.40
2023-03-13T00:28:29.018Z,3.38
2023-03-13T00:31:03.239Z,3.38
2023-03-13T00:33:35.108Z,3.38
2023-03-13T00:36:05.007Z,3.40
2023-03-13T00:38:33.881Z,3.41
2023-03-13T00:41:07.610Z,3.43
2023-03-13T00:43:36.012Z,3.42
2023-03-13T00:46:04.487Z,3.40
2023-03-13T00:48:33.476Z,3.38
2023-03-13T00:51:02.265Z,3.33
2023-03-13T00:53:30.348Z,3.28
2023-03-13T00:56:02.832Z,3.23
2023-03-13T00:58:32.746Z,3.19
2023-03-13T01:01:11.363Z,3.18
2023-03-13T01:03:40.685Z,3.18
2023-03-13T01:06:11.202Z,3.20
2023-03-13T01:08:39.485Z,3.21
2023-03-13T01:11:12.360Z,3.21
2023-03-13T01:13:40.547Z,3.22
2023-03-13T01:16:09.916Z,3.23
2023-03-13T01:18:38.754Z,3.26
2023-03-13T01:21:07.026Z,3.27
2023-03-13T01:23:35.003Z,3.27
2023-03-13T01:26:04.510Z,3.27
2023-03-13T01:28:32.990Z,3.28
2023-03-13T01:31:01.658Z,3.28
2023-03-13T01:33:31.008Z,3.28
2023-03-13T01:36:02.687Z,3.29
2023-03-13T01:38:31.234Z,3.28
2023-03-13T01:40:59.122Z,3.26
2023-03-13T01:43:28.628Z,3.22
2023-03-13T01:46:01.556Z,3.18
2023-03-13T01:48:34.290Z,3.15
2023-03-13T01:51:03.488Z,3.13
2023-03-13T01:53:33.712Z,3.11
2023-03-13T01:56:05.169Z,3.08
2023-03-13T01:58:33.366Z,3.05
2023-03-13T02:01:02.451Z,3.02
2023-03-13T02:03:30.930Z,3.00
2023-03-13T02:06:01.373Z,3.00
2023-03-13T02:08:32.802Z,2.98
2023-03-13T02:11:07.839Z,2.97
2023-03-13T02:13:35.824Z,2.97
2023-03-13T02:16:05.050Z,2.98
2023-03-13T02:18:33.102Z,2.98
2023-03-13T02:21:21.357Z,2.97
2023-03-13T02:23:53.703Z,2.96
2023-03-13T02:26:22.094Z,2.98
2023-03-13T02:28:50.471Z,2.98
2023-03-13T02:31:19.490Z,2.99
2023-03-13T02:33:47.547Z,2.98
2023-03-13T02:36:18.296Z,2.95
2023-03-13T02:38:51.799Z,2.91
2023-03-13T02:41:20.686Z,2.87
2023-03-13T02:43:48.729Z,2.84
2023-03-13T02:46:19.184Z,2.79
2023-03-13T02:48:51.261Z,2.74
2023-03-13T02:51:28.860Z,2.66
2023-03-13T02:54:00.119Z,2.59
2023-03-13T02:56:30.738Z,2.53
2023-03-13T02:58:59.014Z,2.51
2023-03-13T03:01:27.402Z,2.53
2023-03-13T03:03:55.555Z,2.55
2023-03-13T03:06:23.513Z,2.58
2023-03-13T03:08:51.940Z,2.62
2023-03-13T03:11:20.121Z,2.64
2023-03-13T03:13:51.465Z,2.65
2023-03-13T03:16:20.887Z,2.67
2023-03-13T03:18:49.057Z,2.70
2023-03-13T03:21:17.158Z,2.73
2023-03-13T03:23:45.401Z,2.77
2023-03-13T03:26:13.249Z,2.80
2023-03-13T03:28:41.357Z,2.81
2023-03-13T03:31:12.987Z,2.82
2023-03-13T03:33:42.007Z,2.83
2023-03-13T03:36:16.247Z,2.85
2023-03-13T03:38:46.443Z,2.86
2023-03-13T03:41:16.777Z,2.86
2023-03-13T03:43:45.976Z,2.85
2023-03-13T03:46:15.529Z,2.85
2023-03-13T03:48:43.678Z,2.86
2023-03-13T03:51:12.762Z,2.86
2023-03-13T03:53:42.992Z,2.87
2023-03-13T03:56:10.960Z,2.89
2023-03-13T03:58:43.342Z,2.91
2023-03-13T04:01:18.992Z,2.94
2023-03-13T04:03:49.045Z,2.95
2023-03-13T04:06:17.353Z,2.99
2023-03-13T04:08:45.872Z,3.02
2023-03-13T04:11:16.968Z,3.05
2023-03-13T04:13:50.117Z,3.05
2023-03-13T04:16:18.428Z,3.05
2023-03-13T04:18:47.765Z,3.06
2023-03-13T04:21:17.204Z,3.08
2023-03-13T04:23:59.674Z,3.11
2023-03-13T04:26:28.417Z,3.11
2023-03-13T04:28:58.429Z,3.10
2023-03-13T04:31:55.895Z,3.10
2023-03-13T04:34:42.375Z,3.10
2023-03-13T04:37:42.895Z,3.11
2023-03-13T04:40:23.234Z,3.12
2023-03-13T04:43:20.486Z,3.14
2023-03-13T04:45:58.436Z,3.16
2023-03-13T04:48:42.531Z,3.17
2023-03-13T04:51:25.466Z,3.19
2023-03-13T04:54:14.905Z,3.21
2023-03-13T04:57:12.451Z,3.23
2023-03-13T05:00:11.707Z,3.26
2023-03-13T05:02:54.759Z,3.29
2023-03-13T05:05:42.965Z,3.31
2023-03-13T05:08:33.586Z,3.32
2023-03-13T05:11:18.346Z,3.33
2023-03-13T05:14:05.034Z,3.31
2023-03-13T05:16:50.302Z,3.27
2023-03-13T05:19:36.920Z,3.25
2023-03-13T05:22:23.195Z,3.23
2023-03-13T05:25:11.128Z,3.21
2023-03-13T05:27:57.932Z,3.21
2023-03-13T05:30:52.832Z,3.18
2023-03-13T05:33:53.304Z,3.15
2023-03-13T05:36:40.336Z,3.12
2023-03-13T05:39:37.270Z,3.13
2023-03-13T05:42:37.588Z,3.13
2023-03-13T05:45:31.668Z,3.12
2023-03-13T05:48:18.153Z,3.11
2023-03-13T05:51:06.707Z,3.09
2023-03-13T05:53:57.495Z,3.08
2023-03-13T05:56:50.554Z,3.07
2023-03-13T05:59:47.376Z,3.07
2023-03-13T06:02:45.014Z,3.09
2023-03-13T06:05:17.496Z,3.10
2023-03-13T06:07:46.487Z,3.12
2023-03-13T06:10:15.694Z,3.13
2023-03-13T06:12:43.650Z,3.14
2023-03-13T06:15:13.581Z,3.15
2023-03-13T06:18:00.730Z,3.16
2023-03-13T06:20:28.738Z,3.19
2023-03-13T06:22:56.939Z,3.20
2023-03-13T06:25:25.651Z,3.23
2023-03-13T06:27:53.806Z,3.25
2023-03-13T06:30:21.631Z,3.27
2023-03-13T06:32:50.901Z,3.29
2023-03-13T06:35:18.960Z,3.32
2023-03-13T06:37:47.339Z,3.34
2023-03-13T06:40:15.313Z,3.36
2023-03-13T06:42:43.396Z,3.38
2023-03-13T06:45:11.672Z,3.41
2023-03-13T06:47:39.660Z,3.44
2023-03-13T06:50:08.047Z,3.47
2023-03-13T06:52:43.868Z,3.50
2023-03-13T06:55:13.188Z,3.54
2023-03-13T06:57:41.483Z,3.57
2023-03-13T07:00:11.480Z,3.60
2023-03-13T07:02:39.573Z,3.63
2023-03-13T07:05:08.359Z,3.67
2023-03-13T07:07:36.235Z,3.70
2023-03-13T07:10:05.235Z,3.73
2023-03-13T07:12:34.428Z,3.77
2023-03-13T07:15:02.323Z,3.81
2023-03-13T07:17:30.356Z,3.85
2023-03-13T07:19:58.488Z,3.91
2023-03-13T07:22:26.433Z,3.96
2023-03-13T07:24:54.789Z,4.00
2023-03-13T07:27:23.366Z,4.04
2023-03-13T07:29:52.217Z,4.10
2023-03-13T07:32:20.473Z,4.14
2023-03-13T07:34:48.553Z,4.19
2023-03-13T07:37:17.598Z,4.26
2023-03-13T07:39:45.630Z,4.32
2023-03-13T07:42:13.914Z,4.38
2023-03-13T07:44:42.696Z,4.45
2023-03-13T07:47:10.693Z,4.50
2023-03-13T07:49:42.332Z,4.55
2023-03-13T07:52:10.472Z,4.60
2023-03-13T07:54:38.407Z,4.64
2023-03-13T07:57:06.881Z,4.68
2023-03-13T07:59:34.956Z,4.73
2023-03-13T08:02:03.076Z,4.78
2023-03-13T08:04:31.098Z,4.82
2023-03-13T08:07:00.104Z,4.87
2023-03-13T08:09:27.948Z,4.93
2023-03-13T08:11:56.047Z,4.97
2023-03-13T08:14:24.116Z,5.02
2023-03-13T08:16:52.248Z,5.07
2023-03-13T08:19:20.586Z,5.12
2023-03-13T08:21:48.388Z,5.17
2023-03-13T08:24:16.230Z,5.22
2023-03-13T08:26:44.376Z,5.26
2023-03-13T08:29:14.217Z,5.30
2023-03-13T08:31:47.711Z,5.36
2023-03-13T08:34:16.412Z,5.40
2023-03-13T08:36:44.678Z,5.45
2023-03-13T08:39:19.753Z,5.50
2023-03-13T08:41:47.705Z,5.57
2023-03-13T08:44:17.518Z,5.61
2023-03-13T08:46:45.568Z,5.66
2023-03-13T08:49:13.644Z,5.71
2023-03-13T08:51:42.458Z,5.77
2023-03-13T08:54:10.534Z,5.82
2023-03-13T08:56:39.124Z,5.88
2023-03-13T08:59:07.356Z,5.93
2023-03-13T09:01:35.927Z,6.00
2023-03-13T09:04:04.907Z,6.06
2023-03-13T09:06:34.087Z,6.12
2023-03-13T09:09:02.274Z,6.20
2023-03-13T09:11:30.357Z,6.25
2023-03-13T09:14:01.456Z,6.32
2023-03-13T09:16:30.400Z,6.39
2023-03-13T09:18:58.687Z,6.47
2023-03-13T09:21:28.385Z,6.53
2023-03-13T09:23:57.280Z,6.61
2023-03-13T09:26:25.968Z,6.68
2023-03-13T09:28:54.060Z,6.74
2023-03-13T09:31:23.606Z,6.81
2023-03-13T09:33:52.173Z,6.88
2023-03-13T09:36:22.404Z,6.95
2023-03-13T09:38:51.953Z,7.01
2023-03-13T09:41:22.602Z,7.07
2023-03-13T09:43:53.729Z,7.13
2023-03-13T09:46:38.399Z,7.18
2023-03-13T09:49:13.467Z,7.26
2023-03-13T09:51:44.198Z,7.32
2023-03-13T09:54:17.985Z,7.38
2023-03-13T09:56:50.881Z,7.43
2023-03-13T09:59:22.017Z,7.50
2023-03-13T10:01:50.950Z,7.55
2023-03-13T10:04:19.074Z,7.62
2023-03-13T10:06:49.007Z,7.69
2023-03-13T10:09:22.239Z,7.76
2023-03-13T10:12:00.406Z,7.82
2023-03-13T10:14:39.421Z,7.89
2023-03-13T10:17:20.204Z,7.96
2023-03-13T10:19:52.881Z,8.03
2023-03-13T10:22:23.843Z,8.10
2023-03-13T10:24:51.795Z,8.16
2023-03-13T10:27:19.706Z,8.22
2023-03-13T10:29:47.749Z,8.28
2023-03-13T10:32:16.825Z,8.34
2023-03-13T10:34:44.925Z,8.39
2023-03-13T10:37:16.691Z,8.45
2023-03-13T10:39:44.773Z,8.51
2023-03-13T10:42:24.402Z,8.56
2023-03-13T10:44:56.772Z,8.63
2023-03-13T10:47:24.857Z,8.68
2023-03-13T10:49:56.006Z,8.73
2023-03-13T10:52:30.218Z,8.78
2023-03-13T10:55:02.480Z,8.84
2023-03-13T10:57:32.604Z,8.89
2023-03-13T11:00:03.109Z,8.95
2023-03-13T11:02:32.115Z,9.01
2023-03-13T11:05:00.321Z,9.06
2023-03-13T11:07:38.363Z,9.12
2023-03-13T11:10:15.744Z,9.18
2023-03-13T11:12:48.325Z,9.24
2023-03-13T11:15:17.370Z,9.29
2023-03-13T11:17:47.726Z,9.34
2023-03-13T11:20:27.376Z,9.39
2023-03-13T11:23:04.440Z,9.44
2023-03-13T11:25:43.469Z,9.50
2023-03-13T11:28:11.347Z,9.54
2023-03-13T11:30:51.695Z,9.59
2023-03-13T11:33:30.413Z,9.63
2023-03-13T11:36:01.550Z,9.68
2023-03-13T11:38:33.932Z,9.72
2023-03-13T11:41:10.910Z,9.77
2023-03-13T11:44:02.522Z,9.82
2023-03-13T11:46:49.309Z,9.88
2023-03-13T11:49:23.322Z,9.95
2023-03-13T11:52:01.859Z,10.02
2023-03-13T11:54:48.291Z,10.12
2023-03-13T11:57:29.788Z,10.24
2023-03-13T12:00:16.580Z,10.34
2023-03-13T12:02:44.815Z,10.45
2023-03-13T12:05:15.460Z,10.55
2023-03-13T12:07:48.838Z,10.65
2023-03-13T12:10:23.011Z,10.75
2023-03-13T12:13:13.033Z,10.84
2023-03-13T12:15:43.579Z,10.95
2023-03-13T12:18:20.776Z,11.04
2023-03-13T12:21:03.884Z,11.12
2023-03-13T12:23:52.281Z,11.22
2023-03-13T12:26:21.960Z,11.31
2023-03-13T12:29:08.942Z,11.39
2023-03-13T12:31:40.910Z,11.47
2023-03-13T12:34:14.981Z,11.56
2023-03-13T12:37:02.339Z,11.63
2023-03-13T12:39:35.322Z,11.73
2023-03-13T12:42:07.908Z,11.80
2023-03-13T12:44:36.297Z,11.88
2023-03-13T12:47:08.770Z,11.96
2023-03-13T12:49:36.635Z,12.03
2023-03-13T12:52:19.868Z,12.10
2023-03-13T12:54:58.072Z,12.17
2023-03-13T12:57:26.095Z,12.24
2023-03-13T12:59:55.663Z,12.31
2023-03-13T13:02:24.867Z,12.38
2023-03-13T13:04:54.686Z,12.43
2023-03-13T13:07:35.760Z,12.50
2023-03-13T13:10:09.689Z,12.58
2023-03-13T13:12:39.153Z,12.66
2023-03-13T13:15:19.347Z,12.72
2023-03-13T13:17:50.361Z,12.81
2023-03-13T13:20:30.832Z,12.90
2023-03-13T13:23:28.573Z,12.98
2023-03-13T13:26:16.610Z,13.07
2023-03-13T13:28:44.478Z,13.15
2023-03-13T13:31:31.285Z,13.24
2023-03-13T13:33:59.453Z,13.33
2023-03-13T13:36:28.998Z,13.41
2023-03-13T13:38:57.281Z,13.48
2023-03-13T13:41:28.433Z,13.56
2023-03-13T13:44:25.829Z,13.65
2023-03-13T13:46:54.753Z,13.74
2023-03-13T13:49:26.494Z,13.84
2023-03-13T13:52:04.083Z,13.92
2023-03-13T13:54:33.835Z,14.00
2023-03-13T13:57:08.119Z,14.09
2023-03-13T13:59:40.946Z,14.17
2023-03-13T14:02:10.380Z,14.24
2023-03-13T14:04:57.549Z,14.31
2023-03-13T14:07:29.490Z,14.39
2023-03-13T14:09:57.362Z,14.45
2023-03-13T14:12:30.346Z,14.49
2023-03-13T14:15:18.283Z,14.53
2023-03-13T14:17:50.553Z,14.58
2023-03-13T14:20:27.411Z,14.63
2023-03-13T14:22:57.172Z,14.67
2023-03-13T14:25:27.168Z,14.74
2023-03-13T14:27:55.970Z,14.80
2023-03-13T14:30:24.447Z,14.86
2023-03-13T14:32:52.778Z,14.91
2023-03-13T14:35:22.492Z,14.95
2023-03-13T14:37:52.174Z,15.00
2023-03-13T14:40:21.871Z,15.05
2023-03-13T14:42:56.958Z,15.11
2023-03-13T14:45:30.395Z,15.16
2023-03-13T14:48:20.990Z,15.20
2023-03-13T14:50:50.637Z,15.22
2023-03-13T14:53:20.130Z,15.25
2023-03-13T14:55:49.119Z,15.28
2023-03-13T14:58:19.945Z,15.29
2023-03-13T15:00:48.785Z,15.32
2023-03-13T15:03:21.641Z,15.35
2023-03-13T15:05:51.445Z,15.37
2023-03-13T15:08:21.061Z,15.40
2023-03-13T15:10:49.649Z,15.43
2023-03-13T15:13:32.746Z,15.46
2023-03-13T15:16:01.485Z,15.50
2023-03-13T15:18:30.605Z,15.52
2023-03-13T15:21:10.830Z,15.55
2023-03-13T15:23:39.695Z,15.59
2023-03-13T15:26:07.578Z,15.62
2023-03-13T15:28:35.609Z,15.63
2023-03-13T15:31:03.639Z,15.64
2023-03-13T15:33:31.906Z,15.66
2023-03-13T15:36:00.045Z,15.69
2023-03-13T15:38:28.014Z,15.71
2023-03-13T15:40:56.148Z,15.72
2023-03-13T15:43:24.120Z,15.71
2023-03-13T15:45:52.208Z,15.71
2023-03-13T15:48:20.177Z,15.71
2023-03-13T15:51:01.870Z,15.68
2023-03-13T15:53:31.599Z,15.65
2023-03-13T15:56:00.477Z,15.58
2023-03-13T15:58:29.874Z,15.46
2023-03-13T16:00:58.298Z,15.32
2023-03-13T16:03:28.942Z,15.14
2023-03-13T16:05:57.586Z,14.94
2023-03-13T16:08:35.363Z,14.74
2023-03-13T16:11:05.605Z,14.54
2023-03-13T16:13:33.601Z,14.32
2023-03-13T16:16:01.438Z,14.07
2023-03-13T16:18:29.734Z,13.83
2023-03-13T16:20:57.705Z,13.61
2023-03-13T16:23:25.757Z,13.34
2023-03-13T16:25:53.856Z,13.12
2023-03-13T16:28:21.758Z,12.91
2023-03-13T16:30:49.741Z,12.70
2023-03-13T16:33:17.986Z,12.50
2023-03-13T16:35:46.010Z,12.28
2023-03-13T16:38:13.985Z,12.10
2023-03-13T16:40:41.774Z,11.95
2023-03-13T16:43:11.928Z,11.78
2023-03-13T16:45:39.902Z,11.59
2023-03-13T16:48:14.334Z,11.43
2023-03-13T16:50:45.470Z,11.25
2023-03-13T16:53:13.342Z,11.05
2023-03-13T16:55:41.432Z,10.87
2023-03-13T16:58:12.578Z,10.70
2023-03-13T17:00:40.622Z,10.52
2023-03-13T17:03:09.180Z,10.35
2023-03-13T17:05:37.611Z,10.18
2023-03-13T17:08:05.994Z,10.05
2023-03-13T17:10:34.285Z,9.95
2023-03-13T17:13:02.792Z,9.87
2023-03-13T17:15:30.943Z,9.78
2023-03-13T17:17:59.119Z,9.72
2023-03-13T17:20:28.825Z,9.67
2023-03-13T17:22:56.803Z,9.63
2023-03-13T17:25:25.082Z,9.62
2023-03-13T17:27:53.597Z,9.61
2023-03-13T17:30:24.224Z,9.58
2023-03-13T17:32:52.567Z,9.55
2023-03-13T17:35:20.996Z,9.52
2023-03-13T17:37:49.151Z,9.50
2023-03-13T17:40:19.081Z,9.47
2023-03-13T17:42:47.047Z,9.47
2023-03-13T17:45:15.728Z,9.44
2023-03-13T17:47:44.072Z,9.40
2023-03-13T17:50:14.820Z,9.37
2023-03-13T17:52:42.673Z,9.34
2023-03-13T17:55:11.386Z,9.32
2023-03-13T17:57:39.860Z,9.30
2023-03-13T18:00:22.513Z,9.24
2023-03-13T18:02:50.737Z,9.19
2023-03-13T18:05:18.973Z,9.14
2023-03-13T18:07:47.442Z,9.12
2023-03-13T18:10:16.659Z,9.09
2023-03-13T18:12:44.633Z,9.06
2023-03-13T18:15:12.922Z,9.02
2023-03-13T18:17:41.095Z,9.00
2023-03-13T18:20:14.494Z,8.98
2023-03-13T18:22:42.569Z,8.97
2023-03-13T18:25:11.053Z,8.93
2023-03-13T18:27:41.263Z,8.88
2023-03-13T18:30:35.957Z,8.85
2023-03-13T18:33:04.037Z,8.80
2023-03-13T18:35:32.244Z,8.76
2023-03-13T18:38:00.188Z,8.75
2023-03-13T18:40:28.871Z,8.70
2023-03-13T18:42:56.968Z,8.64
2023-03-13T18:45:25.659Z,8.57
2023-03-13T18:47:54.033Z,8.52
2023-03-13T18:50:27.342Z,8.48
2023-03-13T18:52:56.376Z,8.46
2023-03-13T18:55:27.791Z,8.44
2023-03-13T18:57:56.386Z,8.41
2023-03-13T19:00:25.897Z,8.41
2023-03-13T19:02:54.372Z,8.40
2023-03-13T19:05:23.051Z,8.37
2023-03-13T19:07:51.025Z,8.32
2023-03-13T19:10:20.723Z,8.27
2023-03-13T19:12:48.802Z,8.23
2023-03-13T19:15:16.892Z,8.19
2023-03-13T19:17:44.872Z,8.17
2023-03-13T19:20:14.623Z,8.12
2023-03-13T19:22:42.660Z,8.03
2023-03-13T19:25:11.870Z,7.92
2023-03-13T19:27:40.806Z,7.85
2023-03-13T19:30:19.509Z,7.80
2023-03-13T19:32:47.636Z,7.75
2023-03-13T19:35:18.976Z,7.70
2023-03-13T19:37:47.703Z,7.64
2023-03-13T19:40:20.289Z,7.60
2023-03-13T19:42:48.200Z,7.58
2023-03-13T19:45:20.627Z,7.57
2023-03-13T19:47:48.607Z,7.55
2023-03-13T19:50:19.445Z,7.52
2023-03-13T19:52:47.516Z,7.49
2023-03-13T19:55:16.095Z,7.47
2023-03-13T19:57:44.182Z,7.45
2023-03-13T20:00:18.500Z,7.42
2023-03-13T20:02:46.387Z,7.42
2023-03-13T20:05:14.651Z,7.40
2023-03-13T20:07:42.617Z,7.39
2023-03-13T20:10:10.897Z,7.37
2023-03-13T20:12:39.525Z,7.33
2023-03-13T20:15:07.981Z,7.29
2023-03-13T20:17:35.927Z,7.25
2023-03-13T20:20:07.956Z,7.19
2023-03-13T20:22:35.997Z,7.12
2023-03-13T20:25:04.170Z,7.07
2023-03-13T20:27:31.957Z,7.03
2023-03-13T20:30:00.862Z,7.01
2023-03-13T20:32:29.046Z,6.98
2023-03-13T20:34:57.093Z,6.93
2023-03-13T20:37:25.051Z,6.89
2023-03-13T20:39:52.949Z,6.86
2023-03-13T20:42:22.662Z,6.83
2023-03-13T20:44:50.598Z,6.80
2023-03-13T20:47:18.497Z,6.78
2023-03-13T20:49:46.450Z,6.77
2023-03-13T20:52:14.325Z,6.76
2023-03-13T20:54:42.622Z,6.74
2023-03-13T20:57:10.501Z,6.70
2023-03-13T20:59:38.777Z,6.66
2023-03-13T21:02:06.715Z,6.63
2023-03-13T21:04:34.748Z,6.60
2023-03-13T21:07:04.758Z,6.58
2023-03-13T21:09:34.355Z,6.57
2023-03-13T21:12:02.426Z,6.57
2023-03-13T21:14:30.519Z,6.57
2023-03-13T21:16:58.579Z,6.59
2023-03-13T21:19:26.561Z,6.59
2023-03-13T21:21:54.732Z,6.60
2023-03-13T21:24:22.606Z,6.59
2023-03-13T21:26:50.621Z,6.57
2023-03-13T21:29:18.669Z,6.57
2023-03-13T21:31:46.643Z,6.58
2023-03-13T21:34:14.712Z,6.58
2023-03-13T21:36:42.693Z,6.57
2023-03-13T21:39:12.291Z,6.58
2023-03-13T21:41:40.372Z,6.57
2023-03-13T21:44:08.248Z,6.55
2023-03-13T21:46:36.367Z,6.54
2023-03-13T21:49:04.494Z,6.52
2023-03-13T21:51:32.580Z,6.52
2023-03-13T21:54:00.504Z,6.50
2023-03-13T21:56:28.528Z,6.49
2023-03-13T21:58:56.500Z,6.47
2023-03-13T22:01:24.380Z,6.47
2023-03-13T22:03:53.174Z,6.46
2023-03-13T22:06:22.878Z,6.45
2023-03-13T22:08:51.472Z,6.42
2023-03-13T22:11:20.149Z,6.40
2023-03-13T22:13:49.432Z,6.38
2023-03-13T22:16:17.536Z,6.36
2023-03-13T22:18:45.504Z,6.35
2023-03-13T22:21:15.107Z,6.33
2023-03-13T22:23:43.413Z,6.30
2023-03-13T22:26:13.217Z,6.27
2023-03-13T22:28:41.382Z,6.26
2023-03-13T22:31:11.511Z,6.25
2023-03-13T22:33:39.401Z,6.22
2023-03-13T22:36:08.107Z,6.20
2023-03-13T22:38:39.146Z,6.17
2023-03-13T22:41:09.144Z,6.13
2023-03-13T22:43:37.239Z,6.12
2023-03-13T22:46:05.593Z,6.10
2023-03-13T22:48:33.580Z,6.06
2023-03-13T22:51:03.089Z,6.04
2023-03-13T22:53:31.878Z,6.03
2023-03-13T22:56:00.258Z,6.01
2023-03-13T22:58:28.476Z,6.01
2023-03-13T23:00:57.036Z,6.01
2023-03-13T23:03:25.108Z,6.01
2023-03-13T23:05:53.124Z,6.02
2023-03-13T23:08:21.362Z,6.00
2023-03-13T23:10:49.329Z,5.99
2023-03-13T23:13:17.616Z,5.96
2023-03-13T23:15:55.641Z,5.94
2023-03-13T23:18:25.132Z,5.94
2023-03-13T23:20:53.922Z,5.94
2023-03-13T23:23:21.788Z,5.92
2023-03-13T23:25:50.175Z,5.91
2023-03-13T23:28:18.046Z,5.90
2023-03-13T23:30:46.223Z,5.87
2023-03-13T23:33:14.309Z,5.86
2023-03-13T23:35:44.016Z,5.85
2023-03-13T23:38:12.306Z,5.81
2023-03-13T23:40:40.481Z,5.80
2023-03-13T23:43:08.351Z,5.79
2023-03-13T23:45:36.682Z,5.77
2023-03-13T23:48:05.095Z,5.76
2023-03-13T23:50:33.298Z,5.74
2023-03-13T23:53:01.269Z,5.74
2023-03-13T23:55:29.447Z,5.73
2023-03-13T23:57:57.424Z,5.74
